createdAt,value
2022-10-19T00:01:11.277Z,2.33
2022-10-19T00:03:38.290Z,2.13
2022-10-19T00:06:25.469Z,2.20
2022-10-19T00:08:53.700Z,2.33
2022-10-19T00:11:20.515Z,2.03
2022-10-19T00:13:47.883Z,1.90
2022-10-19T00:16:16.812Z,1.95
2022-10-19T00:18:44.800Z,2.30
2022-10-19T00:21:14.443Z,2.40
2022-10-19T00:23:41.723Z,2.42
2022-10-19T00:26:08.526Z,2.38
2022-10-19T00:28:35.053Z,2.20
2022-10-19T00:31:19.343Z,2.10
2022-10-19T00:33:47.016Z,2.47
2022-10-19T00:36:21.239Z,2.30
2022-10-19T00:38:48.379Z,2.10
2022-10-19T00:41:16.053Z,2.30
2022-10-19T00:43:59.358Z,1.83
2022-10-19T00:46:27.549Z,2.05
2022-10-19T00:49:01.272Z,2.13
2022-10-19T00:51:29.004Z,1.90
2022-10-19T00:53:56.831Z,2.00
2022-10-19T00:56:23.731Z,2.30
2022-10-19T00:58:50.330Z,2.25
2022-10-19T01:01:20.823Z,2.10
2022-10-19T01:03:47.435Z,2.40
2022-10-19T01:06:16.838Z,1.90
2022-10-19T01:08:43.328Z,1.95
2022-10-19T01:11:31.151Z,2.50
2022-10-19T01:14:28.586Z,1.90
2022-10-19T01:17:11.387Z,2.10
2022-10-19T01:20:14.632Z,2.00
2022-10-19T01:23:18.002Z,2.05
2022-10-19T01:26:16.901Z,1.92
2022-10-19T01:28:52.233Z,1.80
2022-10-19T01:34:01.980Z,2.10
2022-10-19T01:37:01.118Z,1.92
2022-10-19T01:39:52.152Z,1.67
2022-10-19T01:42:29.391Z,1.73
2022-10-19T01:45:02.100Z,1.80
2022-10-19T01:47:38.728Z,1.75
2022-10-19T01:50:27.529Z,1.90
2022-10-19T01:52:55.719Z,2.22
2022-10-19T01:55:24.399Z,2.00
2022-10-19T01:57:57.061Z,2.15
2022-10-19T02:00:25.744Z,2.25
2022-10-19T02:02:54.588Z,1.95
2022-10-19T02:05:27.628Z,2.00
2022-10-19T02:07:59.963Z,1.73
2022-10-19T02:10:28.704Z,1.80
2022-10-19T02:12:55.887Z,1.70
2022-10-19T02:15:25.488Z,2.15
2022-10-19T02:17:57.229Z,1.90
2022-10-19T02:20:23.756Z,1.80
2022-10-19T02:22:50.648Z,1.65
2022-10-19T02:25:17.375Z,1.80
2022-10-19T02:27:44.340Z,1.88
2022-10-19T02:30:16.984Z,2.25
2022-10-19T02:32:44.221Z,1.75
2022-10-19T02:35:12.992Z,1.88
2022-10-19T02:37:40.418Z,3.35
2022-10-19T02:40:08.121Z,3.05
2022-10-19T02:42:41.864Z,2.30
2022-10-19T02:45:13.531Z,1.88
2022-10-19T02:47:53.922Z,1.83
2022-10-19T02:50:21.466Z,1.85
2022-10-19T02:52:47.919Z,1.83
2022-10-19T02:55:14.333Z,1.60
2022-10-19T02:57:40.789Z,1.83
2022-10-19T03:00:08.308Z,1.73
2022-10-19T03:02:35.259Z,1.67
2022-10-19T03:05:01.691Z,1.77
2022-10-19T03:07:28.104Z,2.25
2022-10-19T03:09:54.520Z,1.98
2022-10-19T03:12:20.964Z,2.17
2022-10-19T03:14:47.470Z,2.10
2022-10-19T03:17:14.003Z,1.73
2022-10-19T03:19:40.436Z,1.92
2022-10-19T03:22:06.852Z,2.35
2022-10-19T03:24:33.965Z,1.98
2022-10-19T03:27:00.531Z,2.38
2022-10-19T03:29:26.911Z,1.80
2022-10-19T03:31:53.371Z,2.10
2022-10-19T03:34:19.732Z,2.20
2022-10-19T03:36:46.192Z,2.20
2022-10-19T03:39:14.408Z,1.88
2022-10-19T03:41:42.115Z,2.00
2022-10-19T03:44:10.504Z,2.00
2022-10-19T03:46:37.684Z,2.30
2022-10-19T03:49:04.763Z,2.42
2022-10-19T03:51:33.464Z,2.13
2022-10-19T03:54:14.652Z,2.10
2022-10-19T03:56:41.987Z,2.33
2022-10-19T03:59:12.058Z,2.28
2022-10-19T04:01:42.131Z,2.25
2022-10-19T04:04:14.377Z,2.63
2022-10-19T04:06:43.776Z,2.00
2022-10-19T04:09:13.774Z,2.15
2022-10-19T04:11:40.515Z,2.72
2022-10-19T04:14:07.430Z,2.80
2022-10-19T04:16:34.621Z,2.50
2022-10-19T04:19:01.326Z,2.50
2022-10-19T04:21:38.415Z,2.67
2022-10-19T04:24:07.687Z,1.92
2022-10-19T04:26:37.850Z,1.80
2022-10-19T04:29:04.390Z,2.22
2022-10-19T04:31:30.870Z,2.00
2022-10-19T04:33:57.886Z,2.03
2022-10-19T04:36:24.447Z,2.53
2022-10-19T04:38:50.876Z,1.85
2022-10-19T04:41:20.743Z,2.20
2022-10-19T04:43:48.283Z,2.20
2022-10-19T04:46:17.395Z,2.40
2022-10-19T04:48:45.006Z,2.58
2022-10-19T04:51:15.193Z,2.33
2022-10-19T04:53:43.152Z,2.50
2022-10-19T04:56:14.143Z,2.33
2022-10-19T04:58:40.602Z,2.47
2022-10-19T05:01:12.655Z,3.00
2022-10-19T05:03:39.704Z,2.78
2022-10-19T05:06:06.928Z,3.20
2022-10-19T05:08:34.115Z,2.30
2022-10-19T05:11:10.228Z,2.42
2022-10-19T05:13:37.192Z,2.60
2022-10-19T05:16:05.955Z,2.83
2022-10-19T05:18:33.551Z,2.60
2022-10-19T05:21:11.527Z,2.55
2022-10-19T05:23:39.013Z,2.58
2022-10-19T05:26:07.051Z,2.78
2022-10-19T05:28:34.025Z,2.97
2022-10-19T05:31:17.667Z,2.85
2022-10-19T05:33:44.497Z,2.78
2022-10-19T05:36:19.819Z,2.20
2022-10-19T05:38:48.726Z,2.40
2022-10-19T05:41:16.200Z,2.97
2022-10-19T05:43:43.470Z,2.72
2022-10-19T05:46:13.782Z,2.92
2022-10-19T05:48:40.712Z,3.35
2022-10-19T05:51:10.699Z,2.90
2022-10-19T05:56:12.512Z,2.80
2022-10-19T05:58:38.905Z,3.03
2022-10-19T06:01:05.543Z,3.00
2022-10-19T06:03:32.353Z,3.22
2022-10-19T06:05:58.819Z,2.90
2022-10-19T06:08:25.413Z,2.95
2022-10-19T06:10:51.867Z,3.33
2022-10-19T06:13:19.735Z,3.00
2022-10-19T06:15:51.848Z,3.05
2022-10-19T06:18:18.404Z,3.13
2022-10-19T06:20:45.784Z,3.22
2022-10-19T06:23:12.246Z,3.30
2022-10-19T06:25:38.650Z,3.25
2022-10-19T06:28:05.704Z,2.72
2022-10-19T06:30:32.169Z,3.70
2022-10-19T06:32:59.695Z,3.72
2022-10-19T06:35:26.288Z,3.15
2022-10-19T06:37:52.755Z,3.45
2022-10-19T06:40:19.227Z,3.47
2022-10-19T06:42:45.662Z,3.60
2022-10-19T06:45:12.263Z,3.75
2022-10-19T06:47:38.888Z,4.07
2022-10-19T06:50:06.579Z,4.00
2022-10-19T06:52:34.587Z,3.58
2022-10-19T06:55:01.658Z,3.97
2022-10-19T06:57:28.721Z,4.40
2022-10-19T06:59:55.486Z,3.63
2022-10-19T07:02:22.018Z,4.28
2022-10-19T07:04:48.488Z,4.07
2022-10-19T07:07:15.059Z,3.90
2022-10-19T07:09:41.517Z,4.03
2022-10-19T07:12:10.670Z,3.92
2022-10-19T07:14:39.476Z,4.40
2022-10-19T07:17:07.380Z,4.10
2022-10-19T07:19:34.895Z,3.70
2022-10-19T07:22:01.455Z,3.00
2022-10-19T07:24:27.893Z,4.07
2022-10-19T07:26:54.345Z,3.38
2022-10-19T07:29:21.084Z,4.40
2022-10-19T07:31:47.907Z,3.92
2022-10-19T07:34:14.700Z,4.00
2022-10-19T07:36:45.121Z,3.90
2022-10-19T07:39:12.671Z,4.80
2022-10-19T07:41:39.699Z,4.63
2022-10-19T07:44:06.602Z,3.97
2022-10-19T07:46:34.214Z,4.82
2022-10-19T07:49:00.939Z,4.65
2022-10-19T07:53:59.484Z,4.20
2022-10-19T07:56:27.756Z,3.63
2022-10-19T07:58:58.108Z,4.35
2022-10-19T08:01:27.147Z,4.15
2022-10-19T08:06:41.446Z,4.18
2022-10-19T08:09:08.257Z,4.32
2022-10-19T08:11:36.046Z,3.90
2022-10-19T08:14:03.214Z,3.88
2022-10-19T08:16:39.353Z,3.78
2022-10-19T08:19:11.226Z,4.00
2022-10-19T08:21:40.205Z,3.33
2022-10-19T08:24:08.277Z,3.35
2022-10-19T08:26:40.317Z,3.75
2022-10-19T08:29:17.052Z,4.07
2022-10-19T08:31:44.716Z,3.33
2022-10-19T08:34:12.548Z,2.88
2022-10-19T08:36:39.224Z,3.40
2022-10-19T08:39:09.229Z,3.00
2022-10-19T08:41:44.717Z,3.03
2022-10-19T08:44:37.357Z,2.83
2022-10-19T08:47:12.410Z,2.65
2022-10-19T08:49:40.099Z,2.78
2022-10-19T08:52:20.306Z,2.70
2022-10-19T08:54:55.613Z,3.00
2022-10-19T08:57:28.371Z,3.10
2022-10-19T09:00:25.906Z,1.33
2022-10-19T09:03:43.946Z,2.42
2022-10-19T09:08:59.369Z,2.20
2022-10-19T09:11:34.255Z,2.55
2022-10-19T09:14:11.924Z,2.10
2022-10-19T09:16:38.428Z,1.83
2022-10-19T09:19:26.240Z,1.50
2022-10-19T09:22:08.597Z,1.70
2022-10-19T09:24:46.232Z,2.10
2022-10-19T09:27:24.164Z,2.10
2022-10-19T09:29:55.365Z,1.95
2022-10-19T09:32:33.557Z,1.70
2022-10-19T09:35:02.974Z,1.60
2022-10-19T09:37:31.689Z,1.50
2022-10-19T09:39:58.516Z,1.63
2022-10-19T09:42:33.366Z,1.52
2022-10-19T09:45:02.804Z,1.77
2022-10-19T09:50:20.650Z,1.70
2022-10-19T09:52:49.770Z,1.42
2022-10-19T09:55:46.564Z,1.60
2022-10-19T09:58:13.003Z,1.48
2022-10-19T10:00:43.645Z,2.17
2022-10-19T10:03:55.869Z,2.03
2022-10-19T10:06:22.528Z,2.78
2022-10-19T10:08:57.818Z,2.08
2022-10-19T10:11:28.131Z,2.60
2022-10-19T10:13:55.936Z,1.52
2022-10-19T10:16:29.227Z,1.63
2022-10-19T10:18:58.548Z,1.88
2022-10-19T10:21:34.660Z,2.20
2022-10-19T10:24:05.431Z,4.15
2022-10-19T10:26:37.758Z,2.40
2022-10-19T10:29:18.499Z,1.70
2022-10-19T10:31:47.759Z,1.90
2022-10-19T10:34:30.271Z,1.50
2022-10-19T10:37:07.327Z,2.05
2022-10-19T10:39:41.366Z,2.05
2022-10-19T10:42:11.772Z,1.75
2022-10-19T10:44:39.254Z,1.60
2022-10-19T10:47:14.880Z,1.40
2022-10-19T10:49:42.762Z,1.23
2022-10-19T10:52:15.168Z,1.33
2022-10-19T10:54:58.501Z,1.45
2022-10-19T10:57:30.699Z,1.60
2022-10-19T11:00:03.167Z,1.65
2022-10-19T11:03:12.043Z,1.30
2022-10-19T11:05:38.419Z,1.38
2022-10-19T11:08:20.800Z,1.60
2022-10-19T11:11:15.399Z,1.70
2022-10-19T11:14:01.397Z,2.45
2022-10-19T11:16:40.411Z,2.00
2022-10-19T11:19:12.659Z,1.25
2022-10-19T11:22:22.380Z,2.05
2022-10-19T11:25:13.032Z,1.48
2022-10-19T11:27:58.280Z,1.48
2022-10-19T11:30:26.266Z,1.10
2022-10-19T11:33:12.797Z,1.23
2022-10-19T11:35:58.309Z,1.15
2022-10-19T11:38:55.414Z,1.02
2022-10-19T11:41:43.509Z,1.13
2022-10-19T11:44:51.553Z,1.23
2022-10-19T11:47:59.404Z,1.35
2022-10-19T11:50:58.923Z,1.40
2022-10-19T11:54:14.548Z,1.30
2022-10-19T11:57:04.108Z,0.95
2022-10-19T11:59:52.745Z,1.20
2022-10-19T12:02:40.840Z,1.30
2022-10-19T12:05:11.210Z,1.27
2022-10-19T12:07:55.604Z,1.50
2022-10-19T12:10:33.695Z,1.30
2022-10-19T12:13:09.216Z,1.17
2022-10-19T12:15:47.027Z,1.60
2022-10-19T12:18:34.037Z,1.33
2022-10-19T12:23:38.940Z,1.30
2022-10-19T12:26:13.991Z,1.15
2022-10-19T12:28:46.289Z,1.40
2022-10-19T12:31:13.593Z,1.40
2022-10-19T12:34:02.749Z,1.20
2022-10-19T12:36:53.632Z,1.75
2022-10-19T12:39:41.945Z,1.17
2022-10-19T12:42:24.731Z,1.35
2022-10-19T12:45:13.753Z,1.45
2022-10-19T12:47:40.474Z,1.42
2022-10-19T12:50:07.459Z,1.60
2022-10-19T12:52:48.841Z,1.20
2022-10-19T12:55:15.193Z,1.70
2022-10-19T12:57:48.113Z,1.42
2022-10-19T13:00:23.670Z,1.30
2022-10-19T13:03:00.880Z,1.38
2022-10-19T13:05:29.544Z,1.60
2022-10-19T13:07:56.354Z,1.40
2022-10-19T13:10:26.162Z,1.70
2022-10-19T13:12:54.073Z,1.40
2022-10-19T13:15:35.891Z,1.65
2022-10-19T13:18:13.744Z,1.10
2022-10-19T13:23:11.433Z,1.15
2022-10-19T13:25:41.498Z,1.55
2022-10-19T13:28:09.062Z,1.35
2022-10-19T13:30:35.478Z,1.50
2022-10-19T13:33:28.532Z,1.42
2022-10-19T13:36:02.253Z,1.48
2022-10-19T13:38:33.476Z,1.50
2022-10-19T13:41:14.766Z,1.40
2022-10-19T13:44:03.095Z,1.30
2022-10-19T13:46:29.433Z,1.40
2022-10-19T13:49:01.672Z,1.55
2022-10-19T13:51:30.873Z,1.15
2022-10-19T13:54:20.633Z,1.40
2022-10-19T13:57:06.581Z,1.40
2022-10-19T14:00:10.350Z,1.23
2022-10-19T14:02:46.415Z,1.50
2022-10-19T14:05:40.406Z,1.27
2022-10-19T14:08:28.760Z,1.25
2022-10-19T14:11:01.858Z,1.45
2022-10-19T14:13:29.397Z,1.30
2022-10-19T14:15:57.925Z,1.25
2022-10-19T14:18:27.756Z,1.50
2022-10-19T14:21:04.428Z,1.50
2022-10-19T14:23:34.515Z,1.20
2022-10-19T14:26:13.834Z,1.50
2022-10-19T14:28:42.971Z,1.48
2022-10-19T14:31:17.340Z,1.40
2022-10-19T14:33:47.806Z,1.80
2022-10-19T14:36:23.280Z,1.33
2022-10-19T14:38:53.246Z,1.42
2022-10-19T14:41:28.839Z,1.27
2022-10-19T14:44:00.388Z,1.30
2022-10-19T14:46:32.694Z,1.30
2022-10-19T14:49:05.065Z,1.05
2022-10-19T14:51:38.766Z,1.25
2022-10-19T14:54:10.978Z,1.05
2022-10-19T14:56:45.179Z,1.40
2022-10-19T14:59:46.563Z,1.50
2022-10-19T15:02:21.134Z,1.40
2022-10-19T15:04:49.371Z,1.38
2022-10-19T15:07:36.383Z,1.20
2022-10-19T15:10:06.673Z,1.30
2022-10-19T15:12:40.166Z,1.50
2022-10-19T15:15:09.507Z,1.45
2022-10-19T15:17:46.614Z,1.27
2022-10-19T15:20:54.911Z,1.40
2022-10-19T15:23:45.194Z,1.10
2022-10-19T15:26:26.672Z,1.40
2022-10-19T15:28:55.129Z,1.60
2022-10-19T15:33:54.584Z,1.30
2022-10-19T15:36:22.466Z,1.10
2022-10-19T15:39:06.244Z,1.38
2022-10-19T15:41:44.785Z,1.30
2022-10-19T15:44:42.013Z,1.38
2022-10-19T15:47:19.102Z,1.27
2022-10-19T15:49:45.814Z,1.75
2022-10-19T15:52:26.785Z,1.30
2022-10-19T15:54:56.904Z,1.25
2022-10-19T15:57:31.146Z,1.20
2022-10-19T16:00:00.103Z,1.20
2022-10-19T16:02:26.828Z,1.30
2022-10-19T16:04:54.652Z,1.50
2022-10-19T16:07:33.742Z,1.20
2022-10-19T16:10:00.595Z,1.40
2022-10-19T16:12:27.550Z,1.02
2022-10-19T16:14:54.774Z,1.40
2022-10-19T16:17:21.578Z,2.00
2022-10-19T16:19:48.137Z,1.27
2022-10-19T16:22:15.507Z,2.10
2022-10-19T16:24:42.309Z,1.20
2022-10-19T16:27:09.179Z,1.10
2022-10-19T16:29:35.735Z,1.20
2022-10-19T16:32:02.257Z,1.48
2022-10-19T16:34:28.764Z,1.33
2022-10-19T16:36:55.277Z,1.02
2022-10-19T16:39:21.793Z,1.27
2022-10-19T16:41:48.257Z,1.35
2022-10-19T16:44:14.786Z,1.25
2022-10-19T16:46:41.256Z,1.30
2022-10-19T16:49:07.772Z,1.30
2022-10-19T16:51:35.858Z,1.10
2022-10-19T16:54:04.022Z,1.33
2022-10-19T16:56:31.967Z,1.27
2022-10-19T16:59:01.243Z,1.30
2022-10-19T17:01:32.818Z,1.10
2022-10-19T17:03:59.794Z,2.05
2022-10-19T17:06:27.689Z,1.23
2022-10-19T17:11:43.713Z,1.33
2022-10-19T17:14:12.988Z,1.08
2022-10-19T17:16:39.863Z,1.02
2022-10-19T17:19:07.687Z,1.17
2022-10-19T17:21:38.493Z,1.20
2022-10-19T17:24:07.798Z,1.30
2022-10-19T17:26:35.921Z,1.10
2022-10-19T17:29:02.886Z,1.23
2022-10-19T17:31:29.774Z,1.20
2022-10-19T17:33:57.069Z,1.00
2022-10-19T17:36:27.390Z,1.40
2022-10-19T17:39:01.405Z,1.00
2022-10-19T17:41:28.935Z,1.25
2022-10-19T17:43:56.124Z,1.40
2022-10-19T17:46:28.017Z,1.20
2022-10-19T17:48:54.875Z,1.40
2022-10-19T17:51:29.831Z,1.30
2022-10-19T17:53:58.509Z,1.42
2022-10-19T17:56:28.512Z,1.30
2022-10-19T17:58:57.265Z,1.00
2022-10-19T18:01:25.363Z,1.40
2022-10-19T18:03:52.494Z,1.15
2022-10-19T18:06:25.747Z,1.40
2022-10-19T18:08:55.571Z,1.15
2022-10-19T18:11:27.776Z,1.70
2022-10-19T18:13:56.738Z,1.20
2022-10-19T18:16:26.132Z,1.30
2022-10-19T18:18:56.004Z,1.13
2022-10-19T18:21:25.654Z,1.38
2022-10-19T18:23:55.333Z,1.42
2022-10-19T18:26:27.167Z,1.58
2022-10-19T18:28:55.266Z,1.42
2022-10-19T18:31:25.240Z,1.67
2022-10-19T18:33:57.768Z,1.90
2022-10-19T18:36:24.493Z,1.70
2022-10-19T18:38:55.977Z,2.10
2022-10-19T18:41:22.913Z,1.52
2022-10-19T18:43:58.337Z,1.70
2022-10-19T18:46:26.041Z,1.40
2022-10-19T18:48:53.587Z,1.70
2022-10-19T18:51:21.280Z,2.03
2022-10-19T18:53:48.025Z,1.60
2022-10-19T18:56:17.348Z,2.00
2022-10-19T18:58:44.813Z,1.70
2022-10-19T19:01:18.483Z,1.70
2022-10-19T19:03:47.533Z,1.85
2022-10-19T19:06:35.394Z,1.90
2022-10-19T19:09:04.477Z,1.63
2022-10-19T19:14:06.897Z,2.10
2022-10-19T19:16:36.660Z,2.00
2022-10-19T19:19:04.225Z,1.90
2022-10-19T19:21:32.817Z,1.83
2022-10-19T19:24:01.355Z,1.83
2022-10-19T19:26:32.339Z,1.67
2022-10-19T19:28:58.989Z,1.73
2022-10-19T19:31:26.751Z,1.65
2022-10-19T19:33:53.509Z,1.98
2022-10-19T19:36:20.659Z,1.63
2022-10-19T19:38:48.974Z,2.05
2022-10-19T19:41:17.108Z,1.98
2022-10-19T19:43:43.797Z,2.30
2022-10-19T19:46:20.015Z,1.73
2022-10-19T19:48:47.766Z,1.95
2022-10-19T19:51:17.208Z,2.15
2022-10-19T19:53:44.257Z,2.20
2022-10-19T19:56:12.023Z,2.03
2022-10-19T19:58:39.320Z,1.85
2022-10-19T20:01:13.766Z,1.98
2022-10-19T20:03:41.239Z,2.38
2022-10-19T20:06:08.374Z,2.25
2022-10-19T20:08:36.965Z,2.08
2022-10-19T20:11:09.702Z,2.58
2022-10-19T20:13:36.728Z,2.50
2022-10-19T20:16:14.616Z,2.30
2022-10-19T20:18:43.535Z,2.53
2022-10-19T20:21:10.613Z,2.25
2022-10-19T20:23:37.252Z,2.30
2022-10-19T20:26:03.778Z,2.30
2022-10-19T20:28:32.942Z,2.22
2022-10-19T20:33:31.534Z,2.58
2022-10-19T20:36:03.777Z,2.83
2022-10-19T20:38:30.199Z,2.45
2022-10-19T20:40:56.617Z,2.65
2022-10-19T20:43:23.048Z,2.63
2022-10-19T20:45:49.731Z,2.58
2022-10-19T20:48:16.162Z,2.33
2022-10-19T20:50:42.733Z,2.17
2022-10-19T20:53:11.206Z,2.17
2022-10-19T20:55:37.665Z,3.22
2022-10-19T20:58:04.150Z,2.47
2022-10-19T21:00:30.538Z,2.20
2022-10-19T21:02:57.015Z,2.33
2022-10-19T21:05:23.506Z,2.53
2022-10-19T21:07:49.895Z,2.45
2022-10-19T21:10:16.396Z,2.35
2022-10-19T21:12:42.796Z,7.13
2022-10-19T21:15:09.775Z,2.80
2022-10-19T21:17:36.214Z,2.67
2022-10-19T21:20:02.631Z,2.88
2022-10-19T21:22:29.083Z,2.33
2022-10-19T21:24:55.561Z,2.38
2022-10-19T21:27:21.971Z,2.67
2022-10-19T21:29:48.381Z,2.40
2022-10-19T21:32:14.816Z,3.03
2022-10-19T21:34:41.304Z,2.67
2022-10-19T21:37:07.719Z,2.90
2022-10-19T21:39:34.248Z,3.05
2022-10-19T21:42:00.707Z,2.97
2022-10-19T21:44:27.169Z,2.80
2022-10-19T21:46:53.554Z,2.33
2022-10-19T21:49:19.983Z,2.88
2022-10-19T21:51:49.744Z,2.90
2022-10-19T21:54:21.910Z,2.83
2022-10-19T21:56:48.602Z,2.80
2022-10-19T21:59:15.682Z,3.10
2022-10-19T22:01:42.257Z,3.15
2022-10-19T22:04:13.137Z,2.95
2022-10-19T22:06:40.005Z,2.72
2022-10-19T22:09:08.395Z,2.85
2022-10-19T22:11:34.902Z,3.10
2022-10-19T22:14:03.369Z,2.72
2022-10-19T22:16:31.260Z,3.28
2022-10-19T22:18:58.403Z,2.83
2022-10-19T22:21:32.012Z,3.03
2022-10-19T22:24:02.883Z,3.28
2022-10-19T22:26:42.413Z,2.83
2022-10-19T22:29:09.396Z,3.40
2022-10-19T22:31:36.650Z,2.63
2022-10-19T22:34:09.063Z,3.30
2022-10-19T22:36:35.627Z,2.90
2022-10-19T22:39:02.515Z,3.20
2022-10-19T22:41:28.908Z,2.72
2022-10-19T22:43:55.326Z,2.72
2022-10-19T22:46:21.971Z,2.35
2022-10-19T22:48:48.372Z,2.50
2022-10-19T22:51:14.763Z,2.30
2022-10-19T22:53:41.436Z,2.60
2022-10-19T22:56:09.120Z,2.95
2022-10-19T22:58:35.561Z,2.72
2022-10-19T23:01:04.990Z,2.70
2022-10-19T23:03:31.551Z,3.22
2022-10-19T23:05:58.040Z,2.45
2022-10-19T23:08:24.501Z,3.10
2022-10-19T23:10:51.099Z,2.78
2022-10-19T23:13:17.682Z,3.00
2022-10-19T23:15:44.886Z,2.45
2022-10-19T23:18:12.472Z,2.05
2022-10-19T23:20:39.334Z,2.38
2022-10-19T23:23:05.829Z,2.67
2022-10-19T23:28:03.703Z,2.33
2022-10-19T23:30:30.165Z,2.92
2022-10-19T23:32:56.640Z,3.05
2022-10-19T23:35:23.119Z,2.70
2022-10-19T23:37:49.629Z,3.17
2022-10-19T23:40:16.133Z,2.80
2022-10-19T23:42:42.940Z,3.00
2022-10-19T23:45:09.768Z,3.03
2022-10-19T23:47:36.652Z,2.50
2022-10-19T23:50:03.503Z,3.03
2022-10-19T23:52:29.940Z,3.05
2022-10-19T23:54:56.351Z,2.72
2022-10-19T23:57:22.837Z,3.15
2022-10-19T23:59:49.231Z,3.28
